createdAt,value
2018-11-25T00:02:15.375Z,40.47
2018-11-25T00:04:43.122Z,41.90
2018-11-25T00:07:10.866Z,40.23
2018-11-25T00:09:38.639Z,40.80
2018-11-25T00:12:07.039Z,40.53
2018-11-25T00:14:34.754Z,42.30
2018-11-25T00:17:02.472Z,44.57
2018-11-25T00:19:30.193Z,45.40
2018-11-25T00:21:57.963Z,41.00
2018-11-25T00:24:25.679Z,41.47
2018-11-25T00:26:53.387Z,40.53
2018-11-25T00:29:21.111Z,39.83
2018-11-25T00:31:48.822Z,40.73
2018-11-25T00:34:16.559Z,40.67
2018-11-25T00:36:44.266Z,38.63
2018-11-25T00:39:11.979Z,41.13
2018-11-25T00:41:39.703Z,41.90
2018-11-25T00:44:07.469Z,42.30
2018-11-25T00:46:35.198Z,40.63
2018-11-25T00:49:02.943Z,38.70
2018-11-25T00:51:30.724Z,40.37
2018-11-25T00:53:58.468Z,39.57
2018-11-25T00:56:26.191Z,38.63
2018-11-25T00:58:53.957Z,36.90
2018-11-25T01:01:21.659Z,37.30
2018-11-25T01:03:49.426Z,40.03
2018-11-25T01:06:17.171Z,39.60
2018-11-25T01:08:44.891Z,39.37
2018-11-25T01:11:12.611Z,38.70
2018-11-25T01:13:40.319Z,36.83
2018-11-25T01:16:08.051Z,36.47
2018-11-25T01:18:35.796Z,38.57
2018-11-25T01:21:03.523Z,37.57
2018-11-25T01:23:31.244Z,37.43
2018-11-25T01:25:58.997Z,38.03
2018-11-25T01:28:26.720Z,38.97
2018-11-25T01:30:54.447Z,37.03
2018-11-25T01:33:22.210Z,36.03
2018-11-25T01:35:49.959Z,35.70
2018-11-25T01:38:17.675Z,34.63
2018-11-25T01:40:45.391Z,34.27
2018-11-25T01:43:13.096Z,34.00
2018-11-25T01:45:41.003Z,34.50
2018-11-25T01:48:08.731Z,32.53
2018-11-25T01:50:36.455Z,33.47
2018-11-25T01:53:04.227Z,33.10
2018-11-25T01:55:32.015Z,31.97
2018-11-25T01:57:59.749Z,31.00
2018-11-25T02:00:27.521Z,31.10
2018-11-25T02:02:55.239Z,32.83
2018-11-25T02:05:22.999Z,31.20
2018-11-25T02:07:50.748Z,30.50
2018-11-25T02:10:19.118Z,32.27
2018-11-25T02:12:46.979Z,32.40
2018-11-25T02:15:15.590Z,32.70
2018-11-25T02:17:43.384Z,33.87
2018-11-25T02:20:20.412Z,34.60
2018-11-25T02:22:48.278Z,35.50
2018-11-25T02:25:16.139Z,35.43
2018-11-25T02:27:43.854Z,37.63
2018-11-25T02:30:15.476Z,38.33
2018-11-25T02:32:43.261Z,39.13
2018-11-25T02:35:11.849Z,38.50
2018-11-25T02:37:39.588Z,36.63
2018-11-25T02:40:09.591Z,34.33
2018-11-25T02:42:37.333Z,34.60
2018-11-25T02:45:07.272Z,34.20
2018-11-25T02:47:35.016Z,36.00
2018-11-25T02:50:02.773Z,32.20
2018-11-25T02:52:30.482Z,33.60
2018-11-25T02:54:58.208Z,32.87
2018-11-25T02:57:25.922Z,33.10
2018-11-25T02:59:53.652Z,34.43
2018-11-25T03:02:21.389Z,32.33
2018-11-25T03:04:49.115Z,32.67
2018-11-25T03:07:17.135Z,31.00
2018-11-25T03:09:44.872Z,31.57
2018-11-25T03:12:12.591Z,31.97
2018-11-25T03:14:40.334Z,30.90
2018-11-25T03:17:08.065Z,30.27
2018-11-25T03:19:35.805Z,30.10
2018-11-25T03:22:03.595Z,28.20
2018-11-25T03:24:31.352Z,29.90
2018-11-25T03:26:59.075Z,29.97
2018-11-25T03:29:26.797Z,28.60
2018-11-25T03:31:54.530Z,29.20
2018-11-25T03:34:22.259Z,31.77
2018-11-25T03:36:49.975Z,29.80
2018-11-25T03:39:17.691Z,32.13
2018-11-25T03:41:45.408Z,32.07
2018-11-25T03:44:13.119Z,34.30
2018-11-25T03:46:40.878Z,34.97
2018-11-25T03:49:08.604Z,39.50
2018-11-25T03:51:36.321Z,38.93
2018-11-25T03:54:04.187Z,39.70
2018-11-25T03:56:31.926Z,38.40
2018-11-25T03:58:59.636Z,36.97
2018-11-25T04:01:27.354Z,36.33
2018-11-25T04:03:55.075Z,31.87
2018-11-25T04:06:22.813Z,32.47
2018-11-25T04:08:50.534Z,31.70
2018-11-25T04:11:18.262Z,32.93
2018-11-25T04:13:45.980Z,29.63
2018-11-25T04:16:13.835Z,30.47
2018-11-25T04:18:41.567Z,29.47
2018-11-25T04:21:14.324Z,29.10
2018-11-25T04:23:42.063Z,28.87
2018-11-25T04:26:09.856Z,27.80
2018-11-25T04:28:37.631Z,28.00
2018-11-25T04:31:05.576Z,27.43
2018-11-25T04:33:33.279Z,30.30
2018-11-25T04:36:01.015Z,29.83
2018-11-25T04:38:28.749Z,29.00
2018-11-25T04:40:56.480Z,28.93
2018-11-25T04:43:24.192Z,26.80
2018-11-25T04:45:51.910Z,27.77
2018-11-25T04:48:19.663Z,28.07
2018-11-25T04:50:47.681Z,28.30
2018-11-25T04:53:15.415Z,27.63
2018-11-25T04:55:43.135Z,27.70
2018-11-25T04:58:10.862Z,27.63
2018-11-25T05:00:38.586Z,27.63
2018-11-25T05:03:06.374Z,27.17
2018-11-25T05:05:34.088Z,26.40
2018-11-25T05:08:01.823Z,28.93
2018-11-25T05:10:29.591Z,27.47
2018-11-25T05:12:57.365Z,30.47
2018-11-25T05:15:25.080Z,31.07
2018-11-25T05:17:52.819Z,30.90
2018-11-25T05:20:20.854Z,30.27
2018-11-25T05:22:48.588Z,31.43
2018-11-25T05:25:17.373Z,31.27
2018-11-25T05:27:45.111Z,29.50
2018-11-25T05:30:14.866Z,30.87
2018-11-25T05:32:42.634Z,28.97
2018-11-25T05:35:13.192Z,28.10
2018-11-25T05:37:40.978Z,28.90
2018-11-25T05:40:11.539Z,28.50
2018-11-25T05:42:39.317Z,28.70
2018-11-25T05:45:09.636Z,29.03
2018-11-25T05:47:37.355Z,28.27
2018-11-25T05:50:06.323Z,27.40
2018-11-25T05:52:34.063Z,27.73
2018-11-25T05:55:01.775Z,28.97
2018-11-25T05:57:29.487Z,28.70
2018-11-25T05:59:57.216Z,29.60
2018-11-25T06:02:24.947Z,30.17
2018-11-25T06:04:52.669Z,30.10
2018-11-25T06:07:20.407Z,29.57
2018-11-25T06:09:48.135Z,28.80
2018-11-25T06:12:15.847Z,28.93
2018-11-25T06:14:43.571Z,27.67
2018-11-25T06:17:11.296Z,27.27
2018-11-25T06:19:39.014Z,28.23
2018-11-25T06:22:06.759Z,27.63
2018-11-25T06:24:34.488Z,29.27
2018-11-25T06:27:02.231Z,31.23
2018-11-25T06:29:29.964Z,31.67
2018-11-25T06:31:57.696Z,28.73
2018-11-25T06:34:25.424Z,28.60
2018-11-25T06:36:53.163Z,29.67
2018-11-25T06:39:20.909Z,28.57
2018-11-25T06:41:48.703Z,30.80
2018-11-25T06:44:16.435Z,28.60
2018-11-25T06:46:44.171Z,28.10
2018-11-25T06:49:11.909Z,32.90
2018-11-25T06:51:39.631Z,31.40
2018-11-25T06:54:07.361Z,32.77
2018-11-25T06:56:35.099Z,31.27
2018-11-25T06:59:02.856Z,30.60
2018-11-25T07:01:30.586Z,30.93
2018-11-25T07:03:58.316Z,29.83
2018-11-25T07:06:26.078Z,31.23
2018-11-25T07:08:53.837Z,28.70
2018-11-25T07:11:21.589Z,32.00
2018-11-25T07:13:49.310Z,32.97
2018-11-25T07:16:17.033Z,31.07
2018-11-25T07:18:44.780Z,32.77
2018-11-25T07:21:12.539Z,29.23
2018-11-25T07:23:40.291Z,30.33
2018-11-25T07:26:08.039Z,29.43
2018-11-25T07:28:35.768Z,32.23
2018-11-25T07:31:03.968Z,30.70
2018-11-25T07:33:31.707Z,30.30
2018-11-25T07:35:59.438Z,29.70
2018-11-25T07:38:27.176Z,31.57
2018-11-25T07:40:54.959Z,31.97
2018-11-25T07:43:22.751Z,32.13
2018-11-25T07:45:50.491Z,31.77
2018-11-25T07:48:18.243Z,33.00
2018-11-25T07:50:46.016Z,33.33
2018-11-25T07:53:13.784Z,33.07
2018-11-25T07:55:41.584Z,33.50
2018-11-25T07:58:09.308Z,32.13
2018-11-25T08:00:37.059Z,33.07
2018-11-25T08:03:05.095Z,33.80
2018-11-25T08:05:32.835Z,33.47
2018-11-25T08:08:00.595Z,30.47
2018-11-25T08:10:28.324Z,30.43
2018-11-25T08:12:56.562Z,31.97
2018-11-25T08:15:23.921Z,30.60
2018-11-25T08:17:51.631Z,26.97
2018-11-25T08:20:20.260Z,25.73
2018-11-25T08:22:48.067Z,23.97
2018-11-25T08:25:16.780Z,23.87
2018-11-25T08:27:44.544Z,23.23
2018-11-25T08:30:26.949Z,23.13
2018-11-25T08:32:54.688Z,23.50
2018-11-25T08:35:22.446Z,25.77
2018-11-25T08:37:50.220Z,23.17
2018-11-25T08:40:21.763Z,23.23
2018-11-25T08:42:49.532Z,21.57
2018-11-25T08:45:17.287Z,21.50
2018-11-25T08:47:45.052Z,20.60
2018-11-25T08:50:14.514Z,21.17
2018-11-25T08:52:43.030Z,19.73
2018-11-25T08:55:14.740Z,21.03
2018-11-25T08:57:42.469Z,21.53
2018-11-25T09:00:13.179Z,21.57
2018-11-25T09:02:40.909Z,19.87
2018-11-25T09:05:10.432Z,19.40
2018-11-25T09:07:38.240Z,21.17
2018-11-25T09:10:08.432Z,19.80
2018-11-25T09:12:36.159Z,19.97
2018-11-25T09:15:04.903Z,20.47
2018-11-25T09:17:32.630Z,19.90
2018-11-25T09:20:00.417Z,20.83
2018-11-25T09:22:28.180Z,22.13
2018-11-25T09:24:55.930Z,21.87
2018-11-25T09:27:23.645Z,21.03
2018-11-25T09:29:51.387Z,22.70
2018-11-25T09:32:23.129Z,20.97
2018-11-25T09:34:46.905Z,19.77
2018-11-25T09:37:14.640Z,22.60
2018-11-25T09:39:42.361Z,19.93
2018-11-25T09:42:10.114Z,19.00
2018-11-25T09:44:37.840Z,22.77
2018-11-25T09:47:05.880Z,20.70
2018-11-25T09:49:33.616Z,20.93
2018-11-25T09:52:01.342Z,22.60
2018-11-25T09:54:29.103Z,20.63
2018-11-25T09:56:56.828Z,22.63
2018-11-25T09:59:24.538Z,22.53
2018-11-25T10:01:52.316Z,21.53
2018-11-25T10:04:20.056Z,23.23
2018-11-25T10:06:47.804Z,21.93
2018-11-25T10:09:15.559Z,21.50
2018-11-25T10:11:43.297Z,23.23
2018-11-25T10:14:11.011Z,22.37
2018-11-25T10:16:38.715Z,22.03
2018-11-25T10:19:06.419Z,20.03
2018-11-25T10:21:34.155Z,22.03
2018-11-25T10:24:01.904Z,25.50
2018-11-25T10:26:29.629Z,27.60
2018-11-25T10:28:57.364Z,28.77
2018-11-25T10:31:25.093Z,25.83
2018-11-25T10:33:52.816Z,22.07
2018-11-25T10:36:20.599Z,22.83
2018-11-25T10:38:48.327Z,22.47
2018-11-25T10:41:16.049Z,28.10
2018-11-25T10:43:43.768Z,25.13
2018-11-25T10:46:11.539Z,25.77
2018-11-25T10:48:39.268Z,33.13
2018-11-25T10:51:07.030Z,30.83
2018-11-25T10:53:34.754Z,32.50
2018-11-25T10:56:02.477Z,25.70
2018-11-25T10:58:30.201Z,24.57
2018-11-25T11:01:03.520Z,21.47
2018-11-25T11:03:36.858Z,26.50
2018-11-25T11:06:10.247Z,34.33
2018-11-25T11:08:46.768Z,27.90
2018-11-25T11:11:14.503Z,27.07
2018-11-25T11:13:42.240Z,29.27
2018-11-25T11:16:09.957Z,35.47
2018-11-25T11:18:37.685Z,33.60
2018-11-25T11:21:05.708Z,32.83
2018-11-25T11:23:33.456Z,30.13
2018-11-25T11:26:06.662Z,28.90
2018-11-25T11:28:29.030Z,31.93
2018-11-25T11:30:56.757Z,39.47
2018-11-25T11:33:24.486Z,36.13
2018-11-25T11:35:52.220Z,36.20
2018-11-25T11:38:19.951Z,30.40
2018-11-25T11:40:47.686Z,36.17
2018-11-25T11:43:15.424Z,40.83
2018-11-25T11:45:43.199Z,40.87
2018-11-25T11:48:10.968Z,38.80
2018-11-25T11:50:38.687Z,33.37
2018-11-25T11:53:06.729Z,29.30
2018-11-25T11:55:34.461Z,27.67
2018-11-25T11:58:02.192Z,23.27
2018-11-25T12:00:30.859Z,25.17
2018-11-25T12:02:58.889Z,26.73
2018-11-25T12:05:26.615Z,26.43
2018-11-25T12:07:54.347Z,25.37
2018-11-25T12:10:22.077Z,24.87
2018-11-25T12:12:49.839Z,25.33
2018-11-25T12:15:32.136Z,24.40
2018-11-25T12:17:59.879Z,24.87
2018-11-25T12:20:28.760Z,24.97
2018-11-25T12:22:57.025Z,24.53
2018-11-25T12:25:24.779Z,24.07
2018-11-25T12:27:52.534Z,23.33
2018-11-25T12:30:20.292Z,22.37
2018-11-25T12:32:49.160Z,22.20
2018-11-25T12:35:17.376Z,21.97
2018-11-25T12:37:45.165Z,23.17
2018-11-25T12:40:18.019Z,25.53
2018-11-25T12:42:47.760Z,22.87
2018-11-25T12:45:16.468Z,23.20
2018-11-25T12:47:44.201Z,26.57
2018-11-25T12:50:14.024Z,26.40
2018-11-25T12:52:41.788Z,33.40
2018-11-25T12:55:11.883Z,31.50
2018-11-25T12:57:39.635Z,24.83
2018-11-25T13:00:12.895Z,21.80
2018-11-25T13:02:40.665Z,23.27
2018-11-25T13:05:08.459Z,22.73
2018-11-25T13:07:36.193Z,22.83
2018-11-25T13:10:04.126Z,23.40
2018-11-25T13:12:31.853Z,21.33
2018-11-25T13:14:59.664Z,22.03
2018-11-25T13:17:27.428Z,21.93
2018-11-25T13:19:55.175Z,22.73
2018-11-25T13:22:22.951Z,22.63
2018-11-25T13:24:50.695Z,22.83
2018-11-25T13:27:18.435Z,21.70
2018-11-25T13:29:46.165Z,22.13
2018-11-25T13:32:13.908Z,21.53
2018-11-25T13:34:41.682Z,23.40
2018-11-25T13:37:09.431Z,23.63
2018-11-25T13:39:37.144Z,20.67
2018-11-25T13:42:05.110Z,23.93
2018-11-25T13:44:41.675Z,27.40
2018-11-25T13:47:10.248Z,23.03
2018-11-25T13:49:38.000Z,21.27
2018-11-25T13:52:06.508Z,20.33
2018-11-25T13:54:34.464Z,19.00
2018-11-25T13:57:02.235Z,22.37
2018-11-25T13:59:29.959Z,25.20
2018-11-25T14:01:57.700Z,30.97
2018-11-25T14:04:25.440Z,27.27
2018-11-25T14:06:53.195Z,28.30
2018-11-25T14:09:21.555Z,31.23
2018-11-25T14:11:49.268Z,33.03
2018-11-25T14:14:17.000Z,39.27
2018-11-25T14:16:44.730Z,44.97
2018-11-25T14:19:12.455Z,49.20
2018-11-25T14:21:43.222Z,45.67
2018-11-25T14:24:10.936Z,52.10
2018-11-25T14:26:44.244Z,49.83
2018-11-25T14:29:11.973Z,40.70
2018-11-25T14:31:39.695Z,41.93
2018-11-25T14:34:07.423Z,50.63
2018-11-25T14:36:35.168Z,45.10
2018-11-25T14:39:03.140Z,45.47
2018-11-25T14:41:30.945Z,48.17
2018-11-25T14:43:58.679Z,46.90
2018-11-25T14:46:26.412Z,47.23
2018-11-25T14:48:54.147Z,46.53
2018-11-25T14:51:21.867Z,47.13
2018-11-25T14:53:49.585Z,45.43
2018-11-25T14:56:17.368Z,41.77
2018-11-25T14:58:45.106Z,40.60
2018-11-25T15:01:12.845Z,39.10
2018-11-25T15:03:40.583Z,40.00
2018-11-25T15:06:08.347Z,36.93
2018-11-25T15:08:36.091Z,36.07
2018-11-25T15:11:03.892Z,36.30
2018-11-25T15:13:31.720Z,42.03
2018-11-25T15:16:00.672Z,43.13
2018-11-25T15:18:28.406Z,52.10
2018-11-25T15:20:56.214Z,59.80
2018-11-25T15:23:23.923Z,65.10
2018-11-25T15:25:53.397Z,73.20
2018-11-25T15:28:21.132Z,81.47
2018-11-25T15:30:48.856Z,73.77
2018-11-25T15:33:16.626Z,82.87
2018-11-25T15:35:44.379Z,92.20
2018-11-25T15:38:12.141Z,100.73
2018-11-25T15:40:40.385Z,97.27
2018-11-25T15:43:09.168Z,98.20
2018-11-25T15:45:36.955Z,97.77
2018-11-25T15:48:22.895Z,104.43
2018-11-25T15:50:50.731Z,95.70
2018-11-25T15:53:18.508Z,98.03
2018-11-25T15:55:47.758Z,89.23
2018-11-25T15:58:15.519Z,83.37
2018-11-25T16:00:43.272Z,83.90
2018-11-25T16:03:11.740Z,79.83
2018-11-25T16:05:41.367Z,82.53
2018-11-25T16:08:09.090Z,86.17
2018-11-25T16:10:36.832Z,82.57
2018-11-25T16:13:05.057Z,85.40
2018-11-25T16:15:32.870Z,81.17
2018-11-25T16:18:00.610Z,79.67
2018-11-25T16:20:28.460Z,84.80
2018-11-25T16:23:01.494Z,80.00
2018-11-25T16:25:31.958Z,80.33
2018-11-25T16:28:13.278Z,81.07
2018-11-25T16:30:41.032Z,85.27
2018-11-25T16:33:08.761Z,81.77
2018-11-25T16:35:36.747Z,81.67
2018-11-25T16:38:06.516Z,84.23
2018-11-25T16:40:34.267Z,89.30
2018-11-25T16:43:02.037Z,91.47
2018-11-25T16:45:29.770Z,93.87
2018-11-25T16:47:57.500Z,95.03
2018-11-25T16:50:25.551Z,100.57
2018-11-25T16:52:53.049Z,100.20
2018-11-25T16:55:20.795Z,116.67
2018-11-25T16:57:48.494Z,123.00
2018-11-25T17:00:17.524Z,106.87
2018-11-25T17:02:45.303Z,143.80
2018-11-25T17:05:14.688Z,144.33
2018-11-25T17:07:43.655Z,143.87
2018-11-25T17:10:11.477Z,140.63
2018-11-25T17:12:39.225Z,137.53
2018-11-25T17:15:12.928Z,138.13
2018-11-25T17:17:40.703Z,128.77
2018-11-25T17:20:09.044Z,132.03
2018-11-25T17:22:36.802Z,117.40
2018-11-25T17:25:06.435Z,122.03
2018-11-25T17:27:34.253Z,120.60
2018-11-25T17:30:01.996Z,114.00
2018-11-25T17:32:30.696Z,108.73
2018-11-25T17:34:58.419Z,98.50
2018-11-25T17:37:26.180Z,106.10
2018-11-25T17:39:53.894Z,117.93
2018-11-25T17:42:21.627Z,120.80
2018-11-25T17:44:49.367Z,125.87
2018-11-25T17:47:17.091Z,135.60
2018-11-25T17:49:44.827Z,129.40
2018-11-25T17:52:12.626Z,121.67
2018-11-25T17:54:40.436Z,116.47
2018-11-25T17:57:08.947Z,114.77
2018-11-25T17:59:37.704Z,106.03
2018-11-25T18:02:06.047Z,111.30
2018-11-25T18:04:33.791Z,120.20
2018-11-25T18:07:01.543Z,120.50
2018-11-25T18:09:35.996Z,115.27
2018-11-25T18:12:04.320Z,99.40
2018-11-25T18:14:32.088Z,86.17
2018-11-25T18:16:59.819Z,80.47
2018-11-25T18:19:27.608Z,75.23
2018-11-25T18:22:00.821Z,72.37
2018-11-25T18:24:28.555Z,71.20
2018-11-25T18:26:56.339Z,69.57
2018-11-25T18:29:24.076Z,68.90
2018-11-25T18:31:51.813Z,67.83
2018-11-25T18:34:19.544Z,66.73
2018-11-25T18:36:47.260Z,64.07
2018-11-25T18:39:15.010Z,49.97
2018-11-25T18:41:44.096Z,50.70
2018-11-25T18:44:12.091Z,46.57
2018-11-25T18:46:46.528Z,42.13
2018-11-25T18:49:09.287Z,42.63
2018-11-25T18:51:37.024Z,40.60
2018-11-25T18:54:05.911Z,40.63
2018-11-25T18:56:33.648Z,39.87
2018-11-25T18:59:01.447Z,38.40
2018-11-25T19:01:36.423Z,38.53
2018-11-25T19:04:04.169Z,39.83
2018-11-25T19:06:31.908Z,38.07
2018-11-25T19:08:59.627Z,35.77
2018-11-25T19:11:27.360Z,35.47
2018-11-25T19:13:55.095Z,40.23
2018-11-25T19:16:22.906Z,36.07
2018-11-25T19:18:50.623Z,36.33
2018-11-25T19:21:18.356Z,37.33
2018-11-25T19:23:46.195Z,36.80
2018-11-25T19:26:13.953Z,37.07
2018-11-25T19:28:41.701Z,34.57
2018-11-25T19:31:09.471Z,37.70
2018-11-25T19:33:37.244Z,39.37
2018-11-25T19:36:05.377Z,39.70
2018-11-25T19:38:33.095Z,39.03
2018-11-25T19:41:00.827Z,40.57
2018-11-25T19:43:28.559Z,39.03
2018-11-25T19:45:56.292Z,41.57
2018-11-25T19:48:24.604Z,40.87
2018-11-25T19:50:52.323Z,42.20
2018-11-25T19:53:20.046Z,42.10
2018-11-25T19:55:47.784Z,42.83
2018-11-25T19:58:15.519Z,44.43
2018-11-25T20:00:43.800Z,44.60
2018-11-25T20:03:11.532Z,45.10
2018-11-25T20:05:40.064Z,46.10
2018-11-25T20:08:08.111Z,46.93
2018-11-25T20:10:35.883Z,44.80
2018-11-25T20:13:03.659Z,45.57
2018-11-25T20:15:31.398Z,46.13
2018-11-25T20:17:59.137Z,44.07
2018-11-25T20:20:27.214Z,46.80
2018-11-25T20:22:55.489Z,43.40
2018-11-25T20:25:23.244Z,44.10
2018-11-25T20:27:52.800Z,44.93
2018-11-25T20:30:21.868Z,44.70
2018-11-25T20:32:55.205Z,44.73
2018-11-25T20:35:22.969Z,44.50
2018-11-25T20:37:56.148Z,45.33
2018-11-25T20:40:23.935Z,46.00
2018-11-25T20:42:51.774Z,44.83
2018-11-25T20:45:25.780Z,48.47
2018-11-25T20:47:54.073Z,49.13
2018-11-25T20:50:21.871Z,48.53
2018-11-25T20:52:55.203Z,48.93
2018-11-25T20:55:22.931Z,48.93
2018-11-25T20:57:50.674Z,47.90
2018-11-25T21:00:20.653Z,47.77
2018-11-25T21:02:48.392Z,47.03
2018-11-25T21:05:16.235Z,48.70
2018-11-25T21:07:44.048Z,51.30
2018-11-25T21:10:15.095Z,47.90
2018-11-25T21:12:44.052Z,47.47
2018-11-25T21:15:11.800Z,45.07
2018-11-25T21:17:39.771Z,48.27
2018-11-25T21:20:24.551Z,46.43
2018-11-25T21:22:52.319Z,45.57
2018-11-25T21:25:21.283Z,45.47
2018-11-25T21:27:49.083Z,45.77
2018-11-25T21:30:20.710Z,47.87
2018-11-25T21:32:49.536Z,44.60
2018-11-25T21:35:17.264Z,45.00
2018-11-25T21:37:45.022Z,43.43
2018-11-25T21:40:15.752Z,45.67
2018-11-25T21:42:43.473Z,44.83
2018-11-25T21:45:13.214Z,46.57
2018-11-25T21:47:41.030Z,49.97
2018-11-25T21:50:10.158Z,50.10
2018-11-25T21:52:37.868Z,54.20
2018-11-25T21:55:07.276Z,50.77
2018-11-25T21:57:35.003Z,52.30
2018-11-25T22:00:02.776Z,50.60
2018-11-25T22:02:30.515Z,51.37
2018-11-25T22:04:58.238Z,50.33
2018-11-25T22:07:26.047Z,45.53
2018-11-25T22:09:53.789Z,47.00
2018-11-25T22:12:21.524Z,47.07
2018-11-25T22:14:49.223Z,44.77
2018-11-25T22:17:16.948Z,45.20
2018-11-25T22:19:44.660Z,47.77
2018-11-25T22:22:12.375Z,46.97
2018-11-25T22:24:40.088Z,47.63
2018-11-25T22:27:07.824Z,49.90
2018-11-25T22:29:35.542Z,48.67
2018-11-25T22:32:03.296Z,47.37
2018-11-25T22:34:31.019Z,47.40
2018-11-25T22:36:58.736Z,45.57
2018-11-25T22:39:26.451Z,47.23
2018-11-25T22:41:54.168Z,45.33
2018-11-25T22:44:21.900Z,43.23
2018-11-25T22:46:49.635Z,43.20
2018-11-25T22:49:17.367Z,45.00
2018-11-25T22:51:45.127Z,43.63
2018-11-25T22:54:12.882Z,42.20
2018-11-25T22:56:40.613Z,41.37
2018-11-25T22:59:08.339Z,41.27
2018-11-25T23:01:36.119Z,42.50
2018-11-25T23:05:15.540Z,43.13
2018-11-25T23:07:43.283Z,43.87
2018-11-25T23:10:11.029Z,42.93
2018-11-25T23:12:38.778Z,44.67
2018-11-25T23:15:06.634Z,44.40
2018-11-25T23:17:34.347Z,43.47
2018-11-25T23:20:02.072Z,44.43
2018-11-25T23:22:29.794Z,42.80
2018-11-25T23:24:57.518Z,46.10
2018-11-25T23:27:25.252Z,44.03
2018-11-25T23:29:52.976Z,44.07
2018-11-25T23:32:20.672Z,43.93
2018-11-25T23:34:48.383Z,45.60
2018-11-25T23:37:16.120Z,45.97
2018-11-25T23:39:43.880Z,44.23
2018-11-25T23:42:11.661Z,46.00
2018-11-25T23:44:39.415Z,45.73
2018-11-25T23:47:07.178Z,47.30
2018-11-25T23:49:34.911Z,47.20
2018-11-25T23:52:02.669Z,47.07
2018-11-25T23:54:30.399Z,44.97
2018-11-25T23:56:59.403Z,47.93
2018-11-25T23:59:25.980Z,46.80
